Graytown, Ohio
Current Conditions -  °F | °C
As of 10:53 AM on Thursday 18 Dec 2014 (Local Time) from KTDZ Reporting Station
Overcast Overcast  
Wind Chill: 22°   Ceiling: 2600
Heat Index: 31°   Visibility: 10mi
Dew Point: 23°   Wind: 10mph
Humidity: 72%   Direction: 250°WSW
Pressure: 30.24"   Gusts: NA
Location:  41.54°N, 83.26°W
Report Text: KTDZ 181553Z AUTO 25009KT 10SM OVC026 M01/M05 A3024 RMK AO2 SLP248 T10061050 TSNO
Loading
Personal Weather Stations






























Interactive Weather Map New forecast layout! Learn more

10-Day Weather Forecast

Advertisements
Track Severe Weather on mobile